KMWH/MWH METAR and TAF weather

Enter ICAO airport designator
Station Type Date Time Source
KMWH METAR 2019/08/26 06:52 UTC NOAA

KMWH 260652Z AUTO 32012KT 10SM CLR 19/05 A3008 RMK AO2 SLP180 T01890050


Station Type Date Time Source
KMWH Decoded METAR 2019/08/26 06:52 UTC NOAA

Station name not available
Aug 26, 2019 - 02:52 AM EDT / 2019.08.26 0652 UTC
Wind: from the NW (320 degrees) at 14 MPH (12 KT):0
Visibility: 10 mile(s):0
Sky conditions: clear
Temperature: 66.0 F (18.9 C)
Dew Point: 41.0 F (5.0 C)
Relative Humidity: 39%
Pressure (altimeter): 30.08 in. Hg (1018 hPa)
ob: KMWH 260652Z AUTO 32012KT 10SM CLR 19/05 A3008 RMK AO2 SLP180 T01890050
cycle: 7

Station Type Date Time Source
KMWH TAF 2019/08/26 06:28 UTC NOAA

TAF KMWH 260526Z 2606/2706 33006KT P6SM SKC
FM261700 VRB04KT P6SM SKC

Example: see airport list